TimeEST,TemperatureF,Dew PointF,Humidity,Sea Level PressureIn,VisibilityMPH,Wind Direction,Wind SpeedMPH,Gust SpeedMPH,PrecipitationIn,Events,Conditions,WindDirDegrees,DateUTC
12:53 AM,63.0,59.0,87,30.16,10.0,SSW,3.5,-,N/A,,Clear,200,2013-01-12 05:53:00
1:53 AM,59.0,57.0,93,30.16,10.0,Calm,Calm,-,N/A,,Clear,0,2013-01-12 06:53:00
2:53 AM,59.0,57.9,96,30.16,10.0,Calm,Calm,-,N/A,,Clear,0,2013-01-12 07:53:00
3:53 AM,57.0,57.0,100,30.15,10.0,Calm,Calm,-,N/A,,Clear,0,2013-01-12 08:53:00
4:53 AM,57.0,55.9,96,30.14,9.0,Calm,Calm,-,N/A,,Clear,0,2013-01-12 09:53:00
5:53 AM,57.9,57.0,97,30.13,9.0,SE,3.5,-,N/A,,Clear,140,2013-01-12 10:53:00
6:53 AM,57.2,55.4,94,30.15,7.0,Calm,Calm,-,N/A,,Clear,0,2013-01-12 11:53:00
7:53 AM,57.0,55.9,96,30.16,5.0,Calm,Calm,-,N/A,,Clear,0,2013-01-12 12:53:00
8:53 AM,59.0,57.9,96,30.17,8.0,SSE,5.8,-,N/A,,Clear,150,2013-01-12 13:53:00
9:53 AM,63.0,60.1,90,30.19,10.0,Calm,Calm,-,N/A,,Clear,0,2013-01-12 14:53:00
10:53 AM,71.1,61.0,70,30.18,10.0,SSW,5.8,-,N/A,,Clear,210,2013-01-12 15:53:00
11:53 AM,75.0,60.1,60,30.15,10.0,SSW,13.8,-,N/A,,Clear,210,2013-01-12 16:53:00
12:53 PM,75.9,57.9,54,30.13,10.0,SW,8.1,17.3,N/A,,Clear,220,2013-01-12 17:53:00
1:53 PM,77.0,57.0,50,30.12,10.0,SW,10.4,-,N/A,,Clear,220,2013-01-12 18:53:00
2:53 PM,77.0,57.9,52,30.10,10.0,South,9.2,17.3,N/A,,Partly Cloudy,190,2013-01-12 19:53:00
3:53 PM,77.0,57.0,50,30.10,10.0,SW,9.2,-,N/A,,Partly Cloudy,220,2013-01-12 20:53:00
4:53 PM,75.0,55.9,51,30.09,10.0,South,6.9,-,N/A,,Partly Cloudy,190,2013-01-12 21:53:00
5:53 PM,72.0,57.0,59,30.09,10.0,SSE,4.6,-,N/A,,Clear,150,2013-01-12 22:53:00
6:53 PM,70.0,57.0,63,30.08,10.0,South,4.6,-,N/A,,Clear,170,2013-01-12 23:53:00
7:53 PM,68.0,57.0,68,30.09,10.0,SSW,3.5,-,N/A,,Clear,210,2013-01-13 00:53:00
8:53 PM,62.1,57.0,84,30.09,10.0,Calm,Calm,-,N/A,,Clear,0,2013-01-13 01:53:00
9:53 PM,61.0,57.0,87,30.09,10.0,Calm,Calm,-,N/A,,Clear,0,2013-01-13 02:53:00
10:53 PM,60.1,55.9,86,30.08,10.0,SE,3.5,-,N/A,,Clear,140,2013-01-13 03:53:00
11:53 PM,57.0,55.0,93,30.09,10.0,Calm,Calm,-,N/A,,Clear,0,2013-01-13 04:53:00